createdAt,value
2022-10-19T00:01:24.416Z,2.47
2022-10-19T00:03:54.426Z,2.70
2022-10-19T00:06:29.906Z,2.67
2022-10-19T00:08:59.580Z,2.47
2022-10-19T00:11:27.393Z,2.90
2022-10-19T00:13:57.034Z,3.03
2022-10-19T00:16:25.443Z,2.25
2022-10-19T00:18:52.499Z,2.90
2022-10-19T00:21:19.815Z,2.15
2022-10-19T00:23:47.058Z,2.45
2022-10-19T00:26:14.386Z,2.40
2022-10-19T00:28:42.561Z,2.50
2022-10-19T00:31:16.437Z,2.90
2022-10-19T00:33:46.882Z,3.13
2022-10-19T00:36:35.607Z,3.15
2022-10-19T00:39:04.959Z,2.25
2022-10-19T00:41:33.852Z,2.83
2022-10-19T00:44:03.682Z,2.75
2022-10-19T00:46:33.497Z,2.50
2022-10-19T00:49:17.833Z,3.15
2022-10-19T00:51:49.319Z,2.40
2022-10-19T00:54:17.827Z,2.10
2022-10-19T00:56:46.600Z,2.40
2022-10-19T00:59:16.621Z,2.33
2022-10-19T01:01:45.522Z,2.00
2022-10-19T01:04:13.375Z,2.58
2022-10-19T01:06:41.501Z,2.45
2022-10-19T01:09:09.084Z,2.75
2022-10-19T01:12:20.682Z,2.50
2022-10-19T01:15:45.923Z,2.28
2022-10-19T01:18:26.738Z,2.63
2022-10-19T01:21:28.392Z,2.15
2022-10-19T01:27:32.794Z,2.17
2022-10-19T01:30:16.466Z,1.98
2022-10-19T01:33:22.262Z,1.83
2022-10-19T01:36:05.803Z,3.55
2022-10-19T01:38:43.318Z,2.60
2022-10-19T01:41:40.509Z,2.85
2022-10-19T01:44:28.087Z,2.42
2022-10-19T01:47:05.066Z,2.72
2022-10-19T01:49:45.854Z,2.50
2022-10-19T01:52:16.499Z,2.40
2022-10-19T01:54:50.636Z,1.98
2022-10-19T01:57:22.743Z,2.35
2022-10-19T01:59:51.333Z,4.22
2022-10-19T02:02:19.991Z,2.60
2022-10-19T02:04:49.458Z,2.83
2022-10-19T02:07:16.672Z,3.03
2022-10-19T02:09:43.748Z,2.78
2022-10-19T02:12:12.509Z,3.03
2022-10-19T02:14:54.577Z,2.83
2022-10-19T02:17:26.655Z,2.88
2022-10-19T02:19:54.819Z,3.03
2022-10-19T02:22:22.266Z,3.33
2022-10-19T02:24:49.426Z,2.33
2022-10-19T02:27:17.373Z,2.85
2022-10-19T02:29:44.355Z,2.70
2022-10-19T02:32:12.050Z,2.55
2022-10-19T02:34:40.066Z,2.50
2022-10-19T02:37:07.321Z,1.90
2022-10-19T02:39:34.345Z,2.10
2022-10-19T02:42:12.486Z,2.40
2022-10-19T02:44:47.459Z,2.40
2022-10-19T02:47:19.934Z,2.30
2022-10-19T02:49:47.884Z,2.55
2022-10-19T02:52:15.018Z,2.40
2022-10-19T02:54:44.152Z,2.40
2022-10-19T02:57:22.814Z,2.70
2022-10-19T02:59:50.115Z,3.25
2022-10-19T03:02:18.460Z,2.53
2022-10-19T03:07:19.846Z,2.85
2022-10-19T03:09:46.881Z,3.10
2022-10-19T03:12:14.558Z,3.35
2022-10-19T03:14:41.490Z,2.38
2022-10-19T03:17:08.713Z,1.98
2022-10-19T03:19:37.293Z,2.35
2022-10-19T03:22:04.862Z,2.72
2022-10-19T03:24:32.290Z,3.85
2022-10-19T03:26:59.241Z,2.47
2022-10-19T03:29:26.152Z,2.17
2022-10-19T03:31:53.063Z,2.72
2022-10-19T03:34:20.053Z,2.97
2022-10-19T03:36:47.093Z,2.10
2022-10-19T03:39:16.122Z,3.05
2022-10-19T03:41:43.437Z,3.20
2022-10-19T03:44:11.304Z,3.97
2022-10-19T03:46:39.405Z,5.13
2022-10-19T03:49:06.445Z,5.75
2022-10-19T03:51:33.893Z,4.60
2022-10-19T03:54:03.686Z,4.80
2022-10-19T03:56:32.173Z,4.03
2022-10-19T03:59:01.189Z,4.32
2022-10-19T04:01:34.534Z,4.47
2022-10-19T04:04:04.425Z,5.00
2022-10-19T04:06:34.686Z,4.03
2022-10-19T04:09:02.438Z,4.43
2022-10-19T04:11:30.827Z,4.15
2022-10-19T04:13:59.011Z,3.85
2022-10-19T04:16:28.413Z,5.03
2022-10-19T04:18:55.787Z,3.53
2022-10-19T04:21:34.499Z,4.72
2022-10-19T04:24:13.852Z,4.50
2022-10-19T04:26:43.488Z,4.07
2022-10-19T04:29:10.974Z,3.67
2022-10-19T04:31:38.739Z,3.92
2022-10-19T04:34:06.599Z,6.38
2022-10-19T04:36:34.008Z,5.28
2022-10-19T04:39:00.972Z,6.45
2022-10-19T04:41:27.945Z,5.30
2022-10-19T04:43:57.506Z,6.22
2022-10-19T04:46:25.763Z,6.63
2022-10-19T04:48:52.850Z,7.57
2022-10-19T04:51:20.790Z,7.07
2022-10-19T04:53:48.304Z,10.82
2022-10-19T04:56:21.263Z,7.70
2022-10-19T04:58:48.571Z,7.90
2022-10-19T05:01:17.972Z,6.90
2022-10-19T05:03:46.083Z,6.28
2022-10-19T05:06:14.566Z,6.78
2022-10-19T05:08:41.901Z,5.82
2022-10-19T05:11:12.621Z,4.88
2022-10-19T05:13:39.623Z,5.13
2022-10-19T05:16:08.479Z,5.57
2022-10-19T05:18:35.596Z,4.38
2022-10-19T05:21:11.454Z,4.22
2022-10-19T05:23:39.474Z,7.80
2022-10-19T05:26:17.449Z,7.45
2022-10-19T05:28:48.441Z,7.75
2022-10-19T05:31:20.701Z,7.35
2022-10-19T05:33:48.116Z,8.15
2022-10-19T05:36:22.318Z,8.25
2022-10-19T05:38:50.553Z,7.95
2022-10-19T05:41:17.865Z,8.68
2022-10-19T05:43:45.919Z,7.18
2022-10-19T05:46:18.367Z,6.32
2022-10-19T05:48:46.272Z,5.95
2022-10-19T05:51:16.149Z,6.85
2022-10-19T05:53:43.433Z,6.47
2022-10-19T05:56:15.615Z,8.40
2022-10-19T05:58:42.962Z,8.73
2022-10-19T06:01:09.961Z,8.55
2022-10-19T06:03:37.194Z,7.97
2022-10-19T06:06:05.274Z,9.13
2022-10-19T06:08:32.616Z,9.15
2022-10-19T06:11:14.348Z,8.90
2022-10-19T06:13:42.763Z,11.10
2022-10-19T06:16:11.322Z,8.77
2022-10-19T06:18:38.893Z,8.45
2022-10-19T06:21:09.078Z,10.85
2022-10-19T06:23:36.494Z,13.10
2022-10-19T06:26:05.382Z,9.02
2022-10-19T06:28:32.539Z,10.20
2022-10-19T06:31:00.075Z,10.85
2022-10-19T06:33:28.174Z,12.50
2022-10-19T06:35:55.151Z,12.00
2022-10-19T06:38:22.068Z,16.58
2022-10-19T06:40:51.851Z,10.30
2022-10-19T06:43:18.944Z,10.82
2022-10-19T06:45:46.075Z,10.30
2022-10-19T06:48:13.070Z,10.75
2022-10-19T06:50:40.026Z,10.93
2022-10-19T06:53:06.951Z,9.50
2022-10-19T06:55:34.068Z,8.35
2022-10-19T06:58:01.948Z,8.82
2022-10-19T07:00:29.657Z,7.60
2022-10-19T07:02:58.258Z,8.93
2022-10-19T07:05:25.306Z,9.85
2022-10-19T07:07:52.357Z,8.27
2022-10-19T07:10:19.395Z,7.28
2022-10-19T07:12:46.359Z,9.45
2022-10-19T07:15:16.266Z,8.93
2022-10-19T07:17:43.235Z,12.90
2022-10-19T07:20:10.981Z,11.57
2022-10-19T07:22:37.954Z,11.48
2022-10-19T07:25:05.438Z,10.85
2022-10-19T07:27:37.389Z,10.85
2022-10-19T07:30:05.272Z,11.13
2022-10-19T07:32:32.424Z,11.25
2022-10-19T07:34:59.489Z,10.57
2022-10-19T07:37:26.366Z,11.82
2022-10-19T07:39:53.909Z,12.32
2022-10-19T07:44:49.179Z,11.80
2022-10-19T07:47:16.095Z,10.45
2022-10-19T07:49:43.147Z,11.88
2022-10-19T07:52:10.143Z,9.95
2022-10-19T07:54:37.014Z,11.25
2022-10-19T07:57:04.155Z,12.50
2022-10-19T07:59:31.087Z,11.43
2022-10-19T08:01:59.205Z,9.55
2022-10-19T08:07:13.224Z,9.65
2022-10-19T08:09:52.714Z,10.18
2022-10-19T08:12:20.525Z,9.63
2022-10-19T08:14:48.285Z,9.10
2022-10-19T08:17:17.855Z,9.02
2022-10-19T08:19:46.099Z,8.80
2022-10-19T08:22:13.156Z,7.57
2022-10-19T08:24:40.090Z,7.40
2022-10-19T08:27:07.035Z,7.20
2022-10-19T08:29:34.016Z,7.80
2022-10-19T08:32:00.993Z,8.50
2022-10-19T08:34:27.952Z,7.40
2022-10-19T08:36:54.973Z,6.75
2022-10-19T08:39:21.966Z,4.72
2022-10-19T08:42:24.943Z,4.10
2022-10-19T08:45:37.422Z,4.18
2022-10-19T08:48:37.046Z,3.08
2022-10-19T08:51:06.134Z,3.72
2022-10-19T08:54:00.664Z,4.35
2022-10-19T08:56:51.552Z,3.60
2022-10-19T08:59:34.535Z,3.85
2022-10-19T09:02:10.791Z,3.70
2022-10-19T09:04:42.193Z,2.92
2022-10-19T09:07:40.330Z,2.53
2022-10-19T09:10:21.584Z,2.53
2022-10-19T09:15:45.763Z,2.90
2022-10-19T09:18:28.627Z,3.03
2022-10-19T09:21:04.415Z,2.83
2022-10-19T09:24:07.415Z,2.60
2022-10-19T09:26:40.703Z,2.58
2022-10-19T09:29:25.060Z,2.58
2022-10-19T09:34:43.758Z,2.75
2022-10-19T09:37:18.870Z,2.25
2022-10-19T09:39:53.934Z,2.22
2022-10-19T09:42:37.184Z,2.55
2022-10-19T09:45:40.887Z,2.83
2022-10-19T09:48:33.433Z,3.17
2022-10-19T09:51:02.578Z,2.90
2022-10-19T09:53:30.446Z,3.47
2022-10-19T09:56:05.259Z,3.10
2022-10-19T09:58:33.276Z,3.05
2022-10-19T10:01:02.345Z,2.90
2022-10-19T10:03:43.769Z,3.55
2022-10-19T10:06:21.533Z,3.75
2022-10-19T10:08:52.848Z,2.80
2022-10-19T10:11:34.493Z,2.05
2022-10-19T10:14:11.300Z,2.88
2022-10-19T10:16:38.232Z,2.80
2022-10-19T10:19:12.905Z,2.78
2022-10-19T10:21:55.765Z,2.95
2022-10-19T10:24:33.653Z,2.60
2022-10-19T10:27:03.414Z,2.72
2022-10-19T10:29:36.229Z,2.70
2022-10-19T10:32:11.507Z,5.07
2022-10-19T10:34:50.935Z,3.88
2022-10-19T10:37:30.236Z,2.97
2022-10-19T10:40:01.881Z,4.28
2022-10-19T10:42:41.673Z,4.13
2022-10-19T10:45:45.787Z,2.72
2022-10-19T10:48:25.752Z,3.17
2022-10-19T10:50:53.161Z,3.75
2022-10-19T10:53:38.915Z,2.95
2022-10-19T10:56:19.544Z,2.40
2022-10-19T10:58:57.496Z,2.63
2022-10-19T11:01:30.445Z,2.40
2022-10-19T11:04:05.216Z,2.17
2022-10-19T11:06:39.570Z,2.28
2022-10-19T11:09:18.538Z,2.22
2022-10-19T11:11:47.851Z,2.90
2022-10-19T11:14:26.602Z,2.00
2022-10-19T11:16:57.057Z,2.42
2022-10-19T11:19:41.283Z,3.03
2022-10-19T11:22:22.386Z,2.35
2022-10-19T11:25:28.951Z,2.75
2022-10-19T11:28:40.995Z,2.45
2022-10-19T11:31:44.722Z,2.70
2022-10-19T11:34:59.404Z,2.15
2022-10-19T11:37:55.119Z,2.47
2022-10-19T11:41:21.319Z,2.25
2022-10-19T11:44:37.361Z,2.13
2022-10-19T11:47:54.082Z,2.83
2022-10-19T11:50:44.113Z,3.08
2022-10-19T11:53:31.686Z,2.28
2022-10-19T11:56:08.455Z,2.30
2022-10-19T11:59:08.559Z,2.10
2022-10-19T12:02:27.302Z,2.13
2022-10-19T12:05:00.122Z,2.67
2022-10-19T12:08:11.770Z,2.30
2022-10-19T12:11:28.772Z,2.80
2022-10-19T12:14:05.774Z,3.15
2022-10-19T12:16:43.110Z,2.70
2022-10-19T12:19:20.971Z,2.75
2022-10-19T12:21:50.857Z,3.20
2022-10-19T12:24:21.433Z,2.85
2022-10-19T12:26:52.189Z,2.78
2022-10-19T12:32:02.362Z,2.65
2022-10-19T12:34:53.137Z,2.35
2022-10-19T12:38:21.691Z,3.25
2022-10-19T12:41:02.167Z,2.80
2022-10-19T12:43:41.750Z,3.45
2022-10-19T12:46:32.804Z,2.35
2022-10-19T12:49:54.392Z,3.88
2022-10-19T12:52:48.930Z,2.65
2022-10-19T12:55:30.060Z,2.88
2022-10-19T12:58:02.015Z,2.85
2022-10-19T13:00:32.962Z,2.53
2022-10-19T13:03:08.028Z,2.58
2022-10-19T13:05:35.946Z,2.90
2022-10-19T13:08:09.233Z,2.90
2022-10-19T13:10:39.201Z,2.78
2022-10-19T13:13:26.115Z,2.95
2022-10-19T13:15:53.162Z,2.50
2022-10-19T13:18:58.294Z,3.30
2022-10-19T13:21:44.877Z,3.13
2022-10-19T13:24:32.045Z,2.45
2022-10-19T13:27:26.303Z,2.65
2022-10-19T13:29:53.495Z,2.95
2022-10-19T13:32:45.582Z,2.50
2022-10-19T13:35:47.884Z,3.20
2022-10-19T13:38:24.441Z,3.03
2022-10-19T13:41:19.606Z,4.72
2022-10-19T13:44:31.191Z,3.95
2022-10-19T13:47:31.685Z,5.00
2022-10-19T13:50:15.500Z,3.60
2022-10-19T13:53:24.973Z,3.22
2022-10-19T13:56:08.255Z,3.15
2022-10-19T13:59:05.676Z,2.63
2022-10-19T14:02:01.821Z,2.88
2022-10-19T14:04:47.031Z,2.90
2022-10-19T14:07:25.054Z,2.97
2022-10-19T14:10:18.117Z,2.72
2022-10-19T14:12:46.987Z,3.25
2022-10-19T14:15:29.556Z,3.20
2022-10-19T14:17:57.459Z,3.95
2022-10-19T14:20:36.969Z,4.13
2022-10-19T14:23:28.382Z,3.50
2022-10-19T14:26:07.278Z,3.33
2022-10-19T14:28:34.681Z,4.00
2022-10-19T14:31:08.493Z,3.88
2022-10-19T14:33:40.710Z,3.78
2022-10-19T14:36:14.790Z,4.55
2022-10-19T14:38:45.648Z,4.90
2022-10-19T14:41:41.825Z,4.47
2022-10-19T14:44:42.167Z,3.35
2022-10-19T14:47:23.918Z,4.15
2022-10-19T14:49:51.309Z,3.20
2022-10-19T14:52:34.520Z,3.72
2022-10-19T14:55:07.960Z,3.85
2022-10-19T14:57:38.120Z,2.95
2022-10-19T15:00:11.619Z,3.22
2022-10-19T15:02:44.400Z,3.90
2022-10-19T15:05:27.092Z,3.53
2022-10-19T15:07:54.972Z,4.88
2022-10-19T15:10:26.743Z,3.60
2022-10-19T15:13:01.228Z,4.13
2022-10-19T15:15:31.167Z,5.20
2022-10-19T15:18:07.117Z,5.35
2022-10-19T15:20:49.424Z,5.38
2022-10-19T15:23:41.956Z,6.70
2022-10-19T15:28:45.571Z,5.22
2022-10-19T15:31:28.792Z,6.18
2022-10-19T15:33:58.472Z,5.13
2022-10-19T15:36:26.512Z,4.28
2022-10-19T15:39:24.347Z,5.55
2022-10-19T15:41:52.573Z,5.35
2022-10-19T15:44:34.185Z,4.90
2022-10-19T15:47:22.579Z,4.28
2022-10-19T15:50:27.448Z,5.00
2022-10-19T15:52:54.305Z,5.10
2022-10-19T15:55:21.314Z,4.82
2022-10-19T15:57:59.353Z,4.82
2022-10-19T16:00:27.312Z,4.50
2022-10-19T16:02:54.232Z,5.03
2022-10-19T16:05:21.480Z,4.95
2022-10-19T16:07:49.053Z,5.47
2022-10-19T16:10:18.761Z,5.03
2022-10-19T16:12:45.893Z,4.97
2022-10-19T16:15:22.532Z,6.00
2022-10-19T16:17:53.439Z,4.65
2022-10-19T16:20:21.549Z,4.82
2022-10-19T16:22:48.804Z,5.60
2022-10-19T16:25:16.779Z,5.28
2022-10-19T16:27:43.913Z,5.57
2022-10-19T16:30:12.209Z,5.30
2022-10-19T16:32:43.494Z,5.82
2022-10-19T16:35:11.739Z,5.47
2022-10-19T16:37:38.669Z,4.78
2022-10-19T16:40:06.533Z,5.18
2022-10-19T16:42:35.020Z,4.93
2022-10-19T16:45:02.242Z,6.15
2022-10-19T16:47:29.130Z,5.28
2022-10-19T16:50:00.569Z,5.35
2022-10-19T16:52:28.782Z,5.43
2022-10-19T16:54:55.850Z,5.38
2022-10-19T16:57:22.846Z,5.40
2022-10-19T16:59:54.817Z,6.28
2022-10-19T17:02:22.558Z,6.25
2022-10-19T17:04:49.485Z,6.90
2022-10-19T17:07:16.703Z,6.25
2022-10-19T17:09:43.939Z,6.75
2022-10-19T17:12:11.392Z,6.07
2022-10-19T17:14:40.838Z,6.18
2022-10-19T17:17:10.750Z,6.95
2022-10-19T17:19:38.089Z,6.18
2022-10-19T17:22:05.744Z,5.68
2022-10-19T17:24:32.897Z,6.40
2022-10-19T17:27:02.376Z,7.05
2022-10-19T17:29:29.465Z,6.05
2022-10-19T17:31:56.468Z,6.78
2022-10-19T17:34:23.461Z,8.55
2022-10-19T17:36:50.433Z,7.10
2022-10-19T17:39:25.540Z,6.75
2022-10-19T17:41:57.667Z,5.75
2022-10-19T17:44:24.667Z,8.63
2022-10-19T17:46:51.687Z,9.05
2022-10-19T17:49:19.016Z,7.25
2022-10-19T17:51:45.994Z,7.00
2022-10-19T17:54:14.693Z,8.32
2022-10-19T17:56:45.245Z,5.30
2022-10-19T17:59:13.162Z,6.57
2022-10-19T18:01:40.056Z,6.50
2022-10-19T18:04:07.095Z,6.40
2022-10-19T18:06:36.426Z,6.28
2022-10-19T18:09:06.124Z,5.45
2022-10-19T18:11:40.115Z,5.88
2022-10-19T18:14:09.177Z,6.10
2022-10-19T18:16:47.319Z,5.55
2022-10-19T18:19:16.411Z,5.68
2022-10-19T18:21:46.152Z,8.43
2022-10-19T18:24:19.335Z,7.25
2022-10-19T18:26:47.966Z,6.30
2022-10-19T18:29:22.064Z,6.80
2022-10-19T18:31:51.767Z,5.63
2022-10-19T18:34:24.474Z,7.03
2022-10-19T18:36:52.199Z,7.00
2022-10-19T18:39:19.679Z,7.53
2022-10-19T18:41:47.443Z,6.72
2022-10-19T18:44:14.434Z,7.30
2022-10-19T18:46:41.593Z,7.35
2022-10-19T18:49:09.441Z,7.00
2022-10-19T18:51:36.734Z,6.82
2022-10-19T18:54:04.326Z,7.10
2022-10-19T18:56:33.409Z,7.22
2022-10-19T18:59:00.315Z,7.18
2022-10-19T19:01:29.264Z,6.85
2022-10-19T19:03:58.445Z,7.03
2022-10-19T19:06:29.581Z,7.57
2022-10-19T19:11:27.000Z,5.47
2022-10-19T19:13:59.885Z,6.72
2022-10-19T19:16:28.500Z,7.43
2022-10-19T19:18:55.746Z,5.90
2022-10-19T19:21:25.505Z,6.70
2022-10-19T19:23:53.234Z,7.07
2022-10-19T19:26:22.039Z,7.30
2022-10-19T19:28:51.569Z,7.30
2022-10-19T19:31:19.602Z,6.75
2022-10-19T19:33:47.841Z,6.05
2022-10-19T19:36:16.677Z,6.30
2022-10-19T19:38:44.101Z,6.93
2022-10-19T19:41:14.265Z,6.70
2022-10-19T19:43:42.640Z,6.88
2022-10-19T19:46:19.972Z,7.32
2022-10-19T19:48:48.266Z,6.50
2022-10-19T19:51:17.671Z,7.03
2022-10-19T19:53:44.986Z,6.95
2022-10-19T19:56:13.828Z,8.40
2022-10-19T19:58:42.102Z,7.32
2022-10-19T20:01:18.004Z,7.60
2022-10-19T20:03:46.201Z,7.32
2022-10-19T20:06:14.923Z,8.00
2022-10-19T20:08:41.973Z,7.43
2022-10-19T20:11:12.480Z,7.13
2022-10-19T20:13:39.770Z,8.55
2022-10-19T20:16:18.311Z,8.20
2022-10-19T20:18:47.247Z,7.78
2022-10-19T20:21:15.156Z,9.05
2022-10-19T20:23:46.572Z,8.05
2022-10-19T20:26:18.071Z,9.27
2022-10-19T20:28:45.221Z,9.30
2022-10-19T20:31:12.772Z,8.35
2022-10-19T20:33:41.074Z,8.98
2022-10-19T20:36:13.571Z,8.77
2022-10-19T20:38:44.980Z,8.52
2022-10-19T20:41:12.007Z,8.88
2022-10-19T20:43:38.884Z,9.30
2022-10-19T20:46:12.830Z,7.90
2022-10-19T20:48:40.621Z,7.70
2022-10-19T20:51:25.988Z,8.30
2022-10-19T20:53:57.014Z,7.97
2022-10-19T20:56:27.101Z,9.38
2022-10-19T20:58:58.979Z,8.30
2022-10-19T21:01:27.250Z,7.88
2022-10-19T21:03:56.642Z,8.52
2022-10-19T21:06:25.380Z,8.32
2022-10-19T21:08:52.528Z,9.15
2022-10-19T21:11:24.645Z,9.00
2022-10-19T21:13:57.009Z,9.43
2022-10-19T21:16:27.695Z,9.70
2022-10-19T21:18:55.047Z,10.05
2022-10-19T21:21:33.552Z,10.82
2022-10-19T21:24:06.620Z,9.00
2022-10-19T21:26:35.323Z,10.32
2022-10-19T21:29:02.561Z,10.40
2022-10-19T21:31:29.710Z,9.73
2022-10-19T21:33:57.009Z,9.73
2022-10-19T21:36:27.252Z,9.88
2022-10-19T21:38:54.176Z,10.60
2022-10-19T21:41:25.354Z,10.70
2022-10-19T21:43:54.076Z,10.80
2022-10-19T21:46:22.788Z,11.70
2022-10-19T21:48:50.518Z,9.35
2022-10-19T21:51:48.267Z,10.60
2022-10-19T21:54:18.045Z,9.15
2022-10-19T21:56:45.503Z,10.48
2022-10-19T21:59:13.077Z,10.60
2022-10-19T22:01:41.169Z,11.23
2022-10-19T22:04:12.739Z,10.15
2022-10-19T22:06:40.452Z,11.52
2022-10-19T22:09:09.826Z,11.52
2022-10-19T22:11:36.890Z,12.50
2022-10-19T22:14:04.617Z,12.35
2022-10-19T22:16:33.095Z,10.95
2022-10-19T22:19:00.091Z,10.38
2022-10-19T22:21:31.944Z,11.20
2022-10-19T22:24:04.832Z,11.75
2022-10-19T22:26:34.389Z,11.90
2022-10-19T22:29:02.765Z,11.23
2022-10-19T22:31:31.432Z,12.43
2022-10-19T22:34:00.375Z,12.88
2022-10-19T22:36:27.421Z,13.40
2022-10-19T22:38:55.221Z,11.25
2022-10-19T22:41:22.458Z,13.07
2022-10-19T22:43:49.513Z,13.57
2022-10-19T22:46:16.427Z,12.77
2022-10-19T22:48:43.389Z,13.85
2022-10-19T22:51:10.277Z,13.38
2022-10-19T22:53:37.180Z,13.25
2022-10-19T22:56:04.716Z,14.77
2022-10-19T22:58:31.613Z,13.45
2022-10-19T23:01:04.166Z,15.95
2022-10-19T23:03:31.093Z,14.30
2022-10-19T23:05:58.136Z,14.95
2022-10-19T23:08:25.025Z,14.38
2022-10-19T23:10:51.971Z,14.02
2022-10-19T23:13:18.894Z,14.15
2022-10-19T23:15:46.129Z,14.38
2022-10-19T23:18:13.349Z,14.10
2022-10-19T23:20:40.482Z,14.13
2022-10-19T23:23:07.610Z,13.98
2022-10-19T23:25:34.621Z,14.57
2022-10-19T23:28:01.647Z,15.60
2022-10-19T23:30:28.561Z,14.85
2022-10-19T23:32:55.425Z,16.63
2022-10-19T23:35:22.333Z,16.70
2022-10-19T23:37:49.299Z,15.73
2022-10-19T23:40:16.301Z,15.32
2022-10-19T23:42:43.217Z,15.75
2022-10-19T23:45:10.756Z,15.82
2022-10-19T23:47:38.049Z,14.68
2022-10-19T23:50:05.887Z,15.50
2022-10-19T23:52:32.817Z,13.82
2022-10-19T23:54:59.716Z,16.00
2022-10-19T23:57:26.633Z,15.10
2022-10-19T23:59:53.559Z,16.52
